Terminal Aerodrome Forecast
Issued by NWS

Home | Current Version | Previous Version | Graphics & Text | Print | Product List | Glossary On
Versions: 1 2 3 4 5 6 7 8 9 10 11 12 13 14 15 16 17
278
FTUS43 KMPX 090534
TAFAXN
TAF
KAXN 090534Z 0906/1006 34017G24KT P6SM BKN025
     FM090730 34015G22KT P6SM SCT025
     FM091100 34013G20KT P6SM SKC
     FM100000 33009KT P6SM SCT250=

USA.gov is the U.S. government's official web portal to all federal, state and local government web resources and services.